Time;durP1;ratioP1;P1;durP2;ratioP2;P2;SDS_P1;SDS_P2;PMS_P1;PMS_P2;Temp;Humidity;BMP_temperature;BMP_pressure;BME280_temperature;BME280_humidity;BME280_pressure;Samples;Min_cycle;Max_cycle;Signal;HPM_P1;HPM_P2
2023/02/03 00:02:14;;;;;;;;;;;8.80;99.90;;;;;;4948612;28;20384;-70
2023/02/03 00:04:40;;;;;;;;;;;8.80;99.90;;;;;;4933400;28;19967;-78
2023/02/03 00:07:05;;;;;;;;;;;8.80;99.90;;;;;;4953496;28;21218;-68
2023/02/03 00:09:31;;;;;;;;;;;8.70;99.90;;;;;;4953019;28;19952;-69
2023/02/03 00:11:56;;;;;;;;;;;8.70;99.90;;;;;;4949728;28;19916;-68
2023/02/03 00:14:22;;;;;;;;;;;8.70;99.90;;;;;;4953512;28;19923;-75
2023/02/03 00:16:47;;;;;;;;;;;8.70;99.90;;;;;;4931531;28;19912;-70
2023/02/03 00:19:13;;;;;;;;;;;8.80;99.90;;;;;;4931847;28;23046;-68
2023/02/03 00:21:38;;;;;;;;;;;8.80;99.90;;;;;;4952839;28;19919;-68
2023/02/03 00:24:04;;;;;;;;;;;8.80;99.90;;;;;;4954269;28;19912;-75
2023/02/03 00:26:29;;;;;;;;;;;8.80;99.90;;;;;;4957391;28;19916;-69
2023/02/03 00:28:57;;;;;;;;;;;8.80;99.90;;;;;;5012733;28;19908;-84
2023/02/03 00:31:23;;;;;;;;;;;8.80;99.90;;;;;;5076094;28;20211;-89
2023/02/03 00:33:53;;;;;;;;;;;8.80;99.90;;;;;;5077815;28;19969;-84
2023/02/03 00:36:19;;;;;;;;;;;8.80;99.90;;;;;;5076852;28;19912;-79
2023/02/03 00:38:44;;;;;;;;;;;8.80;99.90;;;;;;5042918;28;19909;-79
2023/02/03 00:41:10;;;;;;;;;;;8.80;99.90;;;;;;5059031;28;20203;-85
2023/02/03 00:43:35;;;;;;;;;;;8.90;99.90;;;;;;5078175;28;19919;-86
2023/02/03 00:46:01;;;;;;;;;;;8.80;99.90;;;;;;5078035;28;19912;-80
2023/02/03 00:48:26;;;;;;;;;;;8.80;99.90;;;;;;4985404;28;19916;-86
2023/02/03 00:50:52;;;;;;;;;;;8.80;99.90;;;;;;4963641;28;20002;-88
2023/02/03 00:53:18;;;;;;;;;;;8.80;99.90;;;;;;4968778;28;20265;-69
2023/02/03 00:55:43;;;;;;;;;;;8.80;99.90;;;;;;4939570;28;19954;-70
2023/02/03 00:58:09;;;;;;;;;;;8.80;99.90;;;;;;4945034;28;19947;-78
2023/02/03 01:00:34;;;;;;;;;;;8.80;99.90;;;;;;4965363;28;19913;-69
2023/02/03 01:03:00;;;;;;;;;;;8.80;99.90;;;;;;4962373;28;19920;-71
2023/02/03 01:05:25;;;;;;;;;;;8.80;99.90;;;;;;4958274;28;19916;-69
2023/02/03 01:07:51;;;;;;;;;;;8.80;99.90;;;;;;4962714;28;21129;-77
2023/02/03 01:10:16;;;;;;;;;;;8.80;99.90;;;;;;4945084;28;19990;-94
2023/02/03 01:12:42;;;;;;;;;;;8.80;99.90;;;;;;4935690;28;23586;-70
2023/02/03 01:15:08;;;;;;;;;;;8.80;99.90;;;;;;4935437;28;19955;-69
2023/02/03 01:17:33;;;;;;;;;;;8.80;99.90;;;;;;4971346;28;19927;-70
2023/02/03 01:19:59;;;;;;;;;;;8.80;99.90;;;;;;5048415;28;19913;-80
2023/02/03 01:22:24;;;;;;;;;;;8.80;99.90;;;;;;5053834;28;19994;-77
2023/02/03 01:24:50;;;;;;;;;;;8.80;99.90;;;;;;5053117;28;19947;-82
2023/02/03 01:27:16;;;;;;;;;;;8.80;99.90;;;;;;5045705;28;19919;-82
2023/02/03 01:29:41;;;;;;;;;;;8.90;99.90;;;;;;5057209;28;19913;-84
2023/02/03 01:32:07;;;;;;;;;;;8.90;99.90;;;;;;5056862;28;19909;-80
2023/02/03 01:34:32;;;;;;;;;;;8.80;99.90;;;;;;5048428;28;19944;-70
2023/02/03 01:36:58;;;;;;;;;;;8.90;99.90;;;;;;4935683;28;19928;-95
2023/02/03 01:39:25;;;;;;;;;;;8.80;99.90;;;;;;4927471;28;19951;-69
2023/02/03 01:41:50;;;;;;;;;;;8.80;99.90;;;;;;4932009;28;19913;-70
2023/02/03 01:44:42;;;;;;;;;;;8.80;99.90;;;;;;4938391;28;23217;-83
2023/02/03 01:47:20;;;;;;;;;;;8.90;99.90;;;;;;4939204;28;19975;-69
2023/02/03 01:49:53;;;;;;;;;;;8.90;99.90;;;;;;4936985;28;19936;-92
2023/02/03 01:52:18;;;;;;;;;;;8.90;99.90;;;;;;4940411;28;19927;-80
2023/02/03 01:54:46;;;;;;;;;;;8.90;99.90;;;;;;4912942;28;19916;-70
2023/02/03 01:57:15;;;;;;;;;;;8.90;99.90;;;;;;4926855;28;19913;-68
2023/02/03 01:59:42;;;;;;;;;;;9.00;99.90;;;;;;4933106;28;20041;-76
2023/02/03 02:02:08;;;;;;;;;;;9.00;99.90;;;;;;4936715;28;19920;-69
2023/02/03 02:04:39;;;;;;;;;;;9.10;99.90;;;;;;4942106;28;19960;-71
2023/02/03 02:07:05;;;;;;;;;;;9.10;99.90;;;;;;4939134;28;19919;-69
2023/02/03 02:09:31;;;;;;;;;;;9.10;99.90;;;;;;4933237;28;20287;-72
2023/02/03 02:11:57;;;;;;;;;;;9.10;99.90;;;;;;4912281;28;19913;-69
2023/02/03 02:14:22;;;;;;;;;;;9.10;99.90;;;;;;4921996;28;19919;-73
2023/02/03 02:16:48;;;;;;;;;;;9.20;99.90;;;;;;4907164;28;19983;-76
2023/02/03 02:19:19;;;;;;;;;;;9.20;99.90;;;;;;4916174;28;19944;-75
2023/02/03 02:22:04;;;;;;;;;;;9.20;99.90;;;;;;4911385;28;20000;-68
2023/02/03 02:24:48;;;;;;;;;;;9.20;99.90;;;;;;4909747;28;19919;-69
2023/02/03 02:27:28;;;;;;;;;;;9.20;99.90;;;;;;4901277;28;19913;-87
2023/02/03 02:30:14;;;;;;;;;;;9.20;99.90;;;;;;4905422;28;20012;-87
2023/02/03 02:32:46;;;;;;;;;;;9.20;99.90;;;;;;4912583;28;19928;-69
2023/02/03 02:35:12;;;;;;;;;;;9.20;99.90;;;;;;4909511;28;19924;-89
2023/02/03 02:37:51;;;;;;;;;;;9.20;99.90;;;;;;4921535;28;19952;-74
2023/02/03 02:40:23;;;;;;;;;;;9.20;99.90;;;;;;4916294;28;21016;-79
2023/02/03 02:42:51;;;;;;;;;;;9.20;99.90;;;;;;4910676;28;19920;-69
2023/02/03 02:45:21;;;;;;;;;;;9.20;99.90;;;;;;4911967;28;19949;-83
2023/02/03 02:47:47;;;;;;;;;;;9.20;99.90;;;;;;4913922;28;20344;-69
2023/02/03 02:50:16;;;;;;;;;;;9.20;99.90;;;;;;4910172;28;19944;-88
2023/02/03 02:52:43;;;;;;;;;;;9.20;99.90;;;;;;4912273;28;20059;-70
2023/02/03 02:55:25;;;;;;;;;;;9.20;99.90;;;;;;4904887;28;20585;-90
2023/02/03 02:57:53;;;;;;;;;;;9.20;99.90;;;;;;4908216;28;19913;-91
2023/02/03 03:00:19;;;;;;;;;;;9.10;99.90;;;;;;4907592;28;19929;-69
2023/02/03 03:02:45;;;;;;;;;;;9.10;99.90;;;;;;4906142;28;19921;-68
2023/02/03 03:05:10;;;;;;;;;;;9.20;99.90;;;;;;4913600;28;19917;-77
2023/02/03 03:07:46;;;;;;;;;;;9.20;99.90;;;;;;4901752;28;20551;-68
2023/02/03 03:10:13;;;;;;;;;;;9.20;99.90;;;;;;4912174;28;20012;-70
2023/02/03 03:12:42;;;;;;;;;;;9.20;99.90;;;;;;4910278;28;20733;-79
2023/02/03 03:15:11;;;;;;;;;;;9.20;99.90;;;;;;4907034;28;20021;-71
2023/02/03 03:17:40;;;;;;;;;;;9.20;99.90;;;;;;4909641;28;19920;-82
2023/02/03 03:20:19;;;;;;;;;;;9.20;99.90;;;;;;4914267;28;19994;-69
2023/02/03 03:22:46;;;;;;;;;;;9.20;99.90;;;;;;4912949;28;19913;-86
2023/02/03 03:25:14;;;;;;;;;;;9.10;99.90;;;;;;4913092;28;19949;-69
2023/02/03 03:27:42;;;;;;;;;;;9.10;99.90;;;;;;4919690;28;19914;-70
2023/02/03 03:30:10;;;;;;;;;;;9.10;99.90;;;;;;4911764;28;19913;-81
2023/02/03 03:32:36;;;;;;;;;;;9.10;99.90;;;;;;4905196;28;20012;-70
2023/02/03 03:35:02;;;;;;;;;;;9.10;99.90;;;;;;4910271;28;22876;-89
2023/02/03 03:37:44;;;;;;;;;;;9.10;99.90;;;;;;4911869;28;20813;-71
2023/02/03 03:40:15;;;;;;;;;;;9.10;99.90;;;;;;4914329;28;19919;-79
2023/02/03 03:42:45;;;;;;;;;;;9.10;99.90;;;;;;4903775;28;19917;-70
2023/02/03 03:45:26;;;;;;;;;;;9.20;99.90;;;;;;4898915;28;19927;-67
2023/02/03 03:47:56;;;;;;;;;;;9.20;99.90;;;;;;4908457;28;20205;-71
2023/02/03 03:50:24;;;;;;;;;;;9.20;99.90;;;;;;4908713;28;20021;-86
2023/02/03 03:52:51;;;;;;;;;;;9.20;99.90;;;;;;4906692;28;20932;-68
2023/02/03 03:55:18;;;;;;;;;;;9.20;99.90;;;;;;4911357;28;19919;-74
2023/02/03 03:57:45;;;;;;;;;;;9.20;99.90;;;;;;4911516;28;20441;-75
2023/02/03 04:00:14;;;;;;;;;;;9.10;99.90;;;;;;4916720;28;19913;-69
2023/02/03 04:02:41;;;;;;;;;;;9.20;99.90;;;;;;4910526;28;19921;-84
2023/02/03 04:05:08;;;;;;;;;;;9.20;99.90;;;;;;4910281;28;19933;-71
2023/02/03 04:07:40;;;;;;;;;;;9.20;99.90;;;;;;4908106;28;20680;-80
2023/02/03 04:10:10;;;;;;;;;;;9.20;99.90;;;;;;4924083;28;20208;-68
2023/02/03 04:12:35;;;;;;;;;;;9.20;99.90;;;;;;4928202;28;20327;-70
2023/02/03 04:15:01;;;;;;;;;;;9.30;99.90;;;;;;4932936;28;20126;-68
2023/02/03 04:17:26;;;;;;;;;;;9.20;99.90;;;;;;4932787;28;19924;-69
2023/02/03 04:19:52;;;;;;;;;;;9.30;99.90;;;;;;4937287;28;19986;-69
2023/02/03 04:22:17;;;;;;;;;;;9.30;99.90;;;;;;4934740;28;19943;-86
2023/02/03 04:24:43;;;;;;;;;;;9.30;99.90;;;;;;4935721;28;19946;-92
2023/02/03 04:27:08;;;;;;;;;;;9.30;99.90;;;;;;4934522;28;21078;-68
2023/02/03 04:29:34;;;;;;;;;;;9.20;99.90;;;;;;4935348;28;19925;-71
2023/02/03 04:31:59;;;;;;;;;;;9.20;99.90;;;;;;4932468;28;20840;-69
2023/02/03 04:34:25;;;;;;;;;;;9.30;99.90;;;;;;4936134;28;19920;-73
2023/02/03 04:36:51;;;;;;;;;;;9.20;99.90;;;;;;4932261;28;20407;-70
2023/02/03 04:39:16;;;;;;;;;;;9.30;99.90;;;;;;4938149;28;19935;-68
2023/02/03 04:41:41;;;;;;;;;;;9.30;99.90;;;;;;4941805;28;19912;-69
2023/02/03 04:44:07;;;;;;;;;;;9.30;99.90;;;;;;4936354;28;20312;-78
2023/02/03 04:46:33;;;;;;;;;;;9.30;99.90;;;;;;4939115;28;20083;-83
2023/02/03 04:48:58;;;;;;;;;;;9.30;99.90;;;;;;4938662;28;19912;-70
2023/02/03 04:51:24;;;;;;;;;;;9.30;99.90;;;;;;4933797;28;20300;-71
2023/02/03 04:53:49;;;;;;;;;;;9.30;99.90;;;;;;4930007;28;19920;-82
2023/02/03 04:56:15;;;;;;;;;;;9.30;99.90;;;;;;5007832;28;19913;-79
2023/02/03 04:58:40;;;;;;;;;;;9.20;99.90;;;;;;5055743;28;20299;-85
2023/02/03 05:01:07;;;;;;;;;;;9.30;99.90;;;;;;5063426;28;19913;-82
2023/02/03 05:03:33;;;;;;;;;;;9.30;99.90;;;;;;5046393;28;19924;-70
2023/02/03 05:05:59;;;;;;;;;;;9.30;99.90;;;;;;5057262;28;19913;-79
2023/02/03 05:08:24;;;;;;;;;;;9.20;99.90;;;;;;5053167;28;20291;-88
2023/02/03 05:10:50;;;;;;;;;;;9.20;99.90;;;;;;5072568;28;19921;-81
2023/02/03 05:13:16;;;;;;;;;;;9.20;99.90;;;;;;5074412;28;20005;-70
2023/02/03 05:15:41;;;;;;;;;;;9.20;99.90;;;;;;5058637;28;19919;-75
2023/02/03 05:18:07;;;;;;;;;;;9.20;99.90;;;;;;5071838;28;19955;-79
2023/02/03 05:20:32;;;;;;;;;;;9.20;99.90;;;;;;5060536;28;19959;-80
2023/02/03 05:22:58;;;;;;;;;;;9.20;99.90;;;;;;5069444;28;19960;-79
2023/02/03 05:25:23;;;;;;;;;;;9.20;99.90;;;;;;5050814;28;19916;-70
2023/02/03 05:27:49;;;;;;;;;;;9.10;99.90;;;;;;5074220;28;19912;-73
2023/02/03 05:30:14;;;;;;;;;;;9.20;99.90;;;;;;5078083;28;19915;-81
2023/02/03 05:32:40;;;;;;;;;;;9.10;99.90;;;;;;5076602;28;20323;-73
2023/02/03 05:35:06;;;;;;;;;;;9.10;99.90;;;;;;5068875;28;20372;-84
2023/02/03 05:37:31;;;;;;;;;;;9.10;99.90;;;;;;5076187;28;19908;-87
2023/02/03 05:41:51;;;;;;;;;;;9.10;99.90;;;;;;5070211;28;19908;-82
2023/02/03 05:42:49;;;;;;;;;;;9.10;99.90;;;;;;5059547;28;19909;-80
2023/02/03 05:45:15;;;;;;;;;;;9.10;99.90;;;;;;5074679;28;19940;-69
2023/02/03 05:47:40;;;;;;;;;;;9.10;99.90;;;;;;5067723;28;19912;-82
2023/02/03 05:50:06;;;;;;;;;;;9.00;99.90;;;;;;5073599;28;19908;-73
2023/02/03 05:52:31;;;;;;;;;;;9.00;99.90;;;;;;5071965;28;19919;-71
2023/02/03 05:54:57;;;;;;;;;;;9.00;99.90;;;;;;5067799;28;19996;-75
2023/02/03 05:57:22;;;;;;;;;;;9.00;99.90;;;;;;5071661;28;20007;-75
2023/02/03 05:59:48;;;;;;;;;;;9.00;99.90;;;;;;5076252;28;19957;-83
2023/02/03 06:02:14;;;;;;;;;;;9.00;99.90;;;;;;5048219;28;19958;-84
2023/02/03 06:04:40;;;;;;;;;;;9.00;99.90;;;;;;5068068;28;19948;-82
2023/02/03 06:07:05;;;;;;;;;;;9.00;99.90;;;;;;5070046;28;19916;-74
2023/02/03 06:09:31;;;;;;;;;;;8.90;99.90;;;;;;5068441;28;19959;-73
2023/02/03 06:11:56;;;;;;;;;;;9.00;99.90;;;;;;5051364;28;20244;-76
2023/02/03 06:14:22;;;;;;;;;;;9.00;99.90;;;;;;5067539;28;19983;-74
2023/02/03 06:16:47;;;;;;;;;;;8.90;99.90;;;;;;5074776;28;19952;-70
2023/02/03 06:19:13;;;;;;;;;;;9.00;99.90;;;;;;5074049;28;19922;-84
2023/02/03 06:21:38;;;;;;;;;;;8.90;99.90;;;;;;5071110;28;19918;-71
2023/02/03 06:24:04;;;;;;;;;;;8.90;99.90;;;;;;5075888;28;19951;-78
2023/02/03 06:26:30;;;;;;;;;;;8.90;99.90;;;;;;5069805;28;19954;-82
2023/02/03 06:28:55;;;;;;;;;;;8.90;99.90;;;;;;5075804;28;19916;-86
2023/02/03 06:31:21;;;;;;;;;;;8.80;99.90;;;;;;5072298;28;19912;-76
2023/02/03 06:33:46;;;;;;;;;;;8.80;99.90;;;;;;5075715;28;19969;-88
2023/02/03 06:36:12;;;;;;;;;;;8.80;99.90;;;;;;5073553;28;20317;-81
2023/02/03 06:38:37;;;;;;;;;;;8.80;99.90;;;;;;5072716;28;20218;-89
2023/02/03 06:41:03;;;;;;;;;;;8.80;99.90;;;;;;5075856;28;20098;-75
2023/02/03 06:43:28;;;;;;;;;;;8.70;99.90;;;;;;5074522;28;19912;-76
2023/02/03 06:45:54;;;;;;;;;;;8.70;99.90;;;;;;5072648;28;20343;-70
2023/02/03 06:48:19;;;;;;;;;;;8.80;99.90;;;;;;5066627;28;19908;-70
2023/02/03 06:50:45;;;;;;;;;;;8.80;99.90;;;;;;5074738;28;19912;-84
2023/02/03 06:53:10;;;;;;;;;;;8.80;99.90;;;;;;5070486;28;20307;-71
2023/02/03 06:55:36;;;;;;;;;;;8.80;99.90;;;;;;5028325;28;19971;-69
2023/02/03 06:58:01;;;;;;;;;;;8.80;99.90;;;;;;4959079;28;19936;-76
2023/02/03 07:00:27;;;;;;;;;;;8.90;99.90;;;;;;4956424;28;19924;-69
2023/02/03 07:02:53;;;;;;;;;;;8.90;99.90;;;;;;4959642;28;20555;-79
2023/02/03 07:05:19;;;;;;;;;;;8.90;99.90;;;;;;4956819;28;19920;-69
2023/02/03 07:07:45;;;;;;;;;;;8.90;99.90;;;;;;4961285;28;19959;-84
2023/02/03 07:10:10;;;;;;;;;;;8.90;99.90;;;;;;4954844;28;19916;-81
2023/02/03 07:12:36;;;;;;;;;;;9.00;99.90;;;;;;4954260;28;19987;-69
2023/02/03 07:15:03;;;;;;;;;;;9.00;99.90;;;;;;4959546;28;19978;-79
2023/02/03 07:17:28;;;;;;;;;;;8.90;99.90;;;;;;4957585;28;19918;-69
2023/02/03 07:19:54;;;;;;;;;;;9.00;99.90;;;;;;4956204;28;23600;-69
2023/02/03 07:22:19;;;;;;;;;;;9.00;99.90;;;;;;4953888;28;19912;-69
2023/02/03 07:24:45;;;;;;;;;;;8.90;99.90;;;;;;4940870;28;19967;-70
2023/02/03 07:27:10;;;;;;;;;;;8.90;99.90;;;;;;4981524;28;19915;-82
2023/02/03 07:29:36;;;;;;;;;;;9.00;99.90;;;;;;5048985;28;19920;-84
2023/02/03 07:32:01;;;;;;;;;;;9.00;99.90;;;;;;5068945;28;19905;-86
2023/02/03 07:34:27;;;;;;;;;;;9.00;99.90;;;;;;5056180;28;19971;-87
2023/02/03 07:36:53;;;;;;;;;;;9.00;99.90;;;;;;5068342;28;19944;-82
2023/02/03 07:39:18;;;;;;;;;;;9.00;99.90;;;;;;5073858;28;19917;-68
2023/02/03 07:41:44;;;;;;;;;;;9.00;99.90;;;;;;5071335;28;19909;-91
2023/02/03 07:44:09;;;;;;;;;;;9.10;99.90;;;;;;5072216;28;19905;-80
2023/02/03 07:46:38;;;;;;;;;;;9.00;99.90;;;;;;5073591;28;19965;-83
2023/02/03 07:49:04;;;;;;;;;;;9.00;99.90;;;;;;5057209;28;19904;-82
2023/02/03 07:51:30;;;;;;;;;;;9.00;99.90;;;;;;5010975;28;20015;-68
2023/02/03 07:53:56;;;;;;;;;;;9.00;99.90;;;;;;4955540;28;19926;-68
2023/02/03 07:56:21;;;;;;;;;;;9.10;99.90;;;;;;4958701;28;23569;-69
2023/02/03 07:58:47;;;;;;;;;;;9.00;99.90;;;;;;4957269;28;20459;-69
2023/02/03 08:01:14;;;;;;;;;;;9.10;99.90;;;;;;4961956;28;20459;-69
2023/02/03 08:03:40;;;;;;;;;;;9.10;99.90;;;;;;4949369;28;20448;-69
2023/02/03 08:06:06;;;;;;;;;;;9.10;99.90;;;;;;4970086;28;19920;-77
2023/02/03 08:08:32;;;;;;;;;;;9.10;99.90;;;;;;4966678;28;19912;-72
2023/02/03 08:10:57;;;;;;;;;;;9.20;99.90;;;;;;4945423;28;19916;-74
2023/02/03 08:13:23;;;;;;;;;;;9.20;99.90;;;;;;4946302;28;20239;-87
2023/02/03 08:15:48;;;;;;;;;;;9.20;99.90;;;;;;4947938;28;21256;-68
2023/02/03 08:18:14;;;;;;;;;;;9.20;99.90;;;;;;4943622;28;19913;-73
2023/02/03 08:20:39;;;;;;;;;;;9.30;99.90;;;;;;4947655;28;19916;-69
2023/02/03 08:23:05;;;;;;;;;;;9.20;99.90;;;;;;4945969;28;19943;-69
2023/02/03 08:25:31;;;;;;;;;;;9.30;99.90;;;;;;4945915;28;19912;-68
2023/02/03 08:27:56;;;;;;;;;;;9.30;99.90;;;;;;4943811;28;20019;-68
2023/02/03 08:30:22;;;;;;;;;;;9.30;99.90;;;;;;4943580;28;19913;-83
2023/02/03 08:32:48;;;;;;;;;;;9.30;99.90;;;;;;4943067;28;20023;-68
2023/02/03 08:35:14;;;;;;;;;;;9.40;99.90;;;;;;4945754;28;23112;-69
2023/02/03 08:37:39;;;;;;;;;;;9.40;99.90;;;;;;4943468;28;19923;-72
2023/02/03 08:40:06;;;;;;;;;;;9.40;99.90;;;;;;4944176;28;19912;-69
2023/02/03 08:42:31;;;;;;;;;;;9.50;99.90;;;;;;4947432;28;19935;-93
2023/02/03 08:44:57;;;;;;;;;;;9.50;99.90;;;;;;4951306;28;19913;-68
2023/02/03 08:47:22;;;;;;;;;;;9.60;99.90;;;;;;4946228;28;19913;-70
2023/02/03 08:49:48;;;;;;;;;;;9.60;99.90;;;;;;4931589;28;20355;-68
2023/02/03 08:52:14;;;;;;;;;;;9.60;99.90;;;;;;4932315;28;20811;-92
2023/02/03 08:54:39;;;;;;;;;;;9.60;99.90;;;;;;4942031;28;19913;-70
2023/02/03 08:57:05;;;;;;;;;;;9.60;99.90;;;;;;4945916;28;19959;-68
2023/02/03 08:59:34;;;;;;;;;;;9.70;99.90;;;;;;4952052;28;19956;-70
2023/02/03 09:02:01;;;;;;;;;;;9.70;99.90;;;;;;4944954;28;20595;-77
2023/02/03 09:04:27;;;;;;;;;;;9.70;99.90;;;;;;4947075;28;21445;-82
2023/02/03 09:06:55;;;;;;;;;;;9.70;99.90;;;;;;4954472;28;20787;-69
2023/02/03 09:09:22;;;;;;;;;;;9.80;99.90;;;;;;4962765;28;20093;-69
2023/02/03 09:11:47;;;;;;;;;;;9.80;99.90;;;;;;4976401;28;19916;-69
2023/02/03 09:14:13;;;;;;;;;;;9.80;99.90;;;;;;4975658;28;19931;-93
2023/02/03 09:16:39;;;;;;;;;;;9.80;99.90;;;;;;4967404;28;20046;-70
2023/02/03 09:19:04;;;;;;;;;;;9.90;99.90;;;;;;4969176;28;20320;-89
2023/02/03 09:21:30;;;;;;;;;;;9.90;99.90;;;;;;4972624;28;19912;-70
2023/02/03 09:23:59;;;;;;;;;;;10.00;99.90;;;;;;4975332;28;20287;-82
2023/02/03 09:26:24;;;;;;;;;;;10.00;99.90;;;;;;4974678;28;20327;-80
2023/02/03 09:28:51;;;;;;;;;;;10.00;99.90;;;;;;4972346;28;19938;-70
2023/02/03 09:31:16;;;;;;;;;;;10.00;99.90;;;;;;4975752;28;20678;-69
2023/02/03 09:33:42;;;;;;;;;;;10.00;99.90;;;;;;4966809;28;20740;-77
2023/02/03 09:36:09;;;;;;;;;;;10.00;99.90;;;;;;4962432;28;19983;-70
2023/02/03 09:38:34;;;;;;;;;;;10.00;99.90;;;;;;4963828;28;19928;-79
2023/02/03 09:41:02;;;;;;;;;;;10.00;99.90;;;;;;4965889;28;19920;-88
2023/02/03 09:43:30;;;;;;;;;;;10.00;99.90;;;;;;4966301;28;19912;-67
2023/02/03 09:46:01;;;;;;;;;;;10.00;99.90;;;;;;4966347;28;22785;-89
2023/02/03 09:48:32;;;;;;;;;;;10.00;99.90;;;;;;4948442;28;20266;-68
2023/02/03 09:50:57;;;;;;;;;;;10.00;99.90;;;;;;4970650;28;19913;-80
2023/02/03 09:53:44;;;;;;;;;;;10.00;99.90;;;;;;4973105;28;19927;-89
2023/02/03 09:56:16;;;;;;;;;;;10.00;99.90;;;;;;4975073;28;19919;-68
2023/02/03 09:58:43;;;;;;;;;;;10.00;99.90;;;;;;4997717;28;19913;-75
2023/02/03 10:01:12;;;;;;;;;;;10.00;99.90;;;;;;5029077;28;19916;-81
2023/02/03 10:03:42;;;;;;;;;;;10.00;99.90;;;;;;4943658;28;19912;-69
2023/02/03 10:06:20;;;;;;;;;;;10.00;99.90;;;;;;4960462;28;19920;-69
2023/02/03 10:09:04;;;;;;;;;;;10.00;99.90;;;;;;4963608;28;19913;-72
2023/02/03 10:11:49;;;;;;;;;;;10.00;99.90;;;;;;4961504;28;19919;-71
2023/02/03 10:14:23;;;;;;;;;;;10.00;99.90;;;;;;4965575;28;19956;-87
2023/02/03 10:17:15;;;;;;;;;;;10.00;99.90;;;;;;4967307;28;19923;-81
2023/02/03 10:19:44;;;;;;;;;;;10.00;99.90;;;;;;4963025;28;21776;-69
2023/02/03 10:22:14;;;;;;;;;;;10.10;99.90;;;;;;4965920;28;21172;-75
2023/02/03 10:24:41;;;;;;;;;;;10.10;99.90;;;;;;4944501;28;20903;-78
2023/02/03 10:27:21;;;;;;;;;;;10.10;99.90;;;;;;4965489;28;20249;-79
2023/02/03 10:29:54;;;;;;;;;;;10.20;99.90;;;;;;4971744;28;20314;-69
2023/02/03 10:32:22;;;;;;;;;;;10.20;99.90;;;;;;4973485;28;20007;-77
2023/02/03 10:34:48;;;;;;;;;;;10.20;99.90;;;;;;4971429;28;19947;-70
2023/02/03 10:37:23;;;;;;;;;;;10.20;99.90;;;;;;4969535;28;19965;-68
2023/02/03 10:39:50;;;;;;;;;;;10.20;99.90;;;;;;5061577;28;19909;-80
2023/02/03 10:42:16;;;;;;;;;;;10.20;99.90;;;;;;5074376;28;19912;-68
2023/02/03 10:44:44;;;;;;;;;;;10.20;99.90;;;;;;5067911;28;19990;-68
2023/02/03 10:47:33;;;;;;;;;;;10.20;99.90;;;;;;5047473;28;19916;-71
2023/02/03 10:50:02;;;;;;;;;;;10.20;99.90;;;;;;5068742;28;19912;-80
2023/02/03 10:52:29;;;;;;;;;;;10.30;99.90;;;;;;5071048;28;20353;-86
2023/02/03 10:54:55;;;;;;;;;;;10.30;99.90;;;;;;5067071;28;19909;-85
2023/02/03 10:57:21;;;;;;;;;;;10.30;99.90;;;;;;5069740;28;19923;-68
2023/02/03 10:59:47;;;;;;;;;;;10.30;99.90;;;;;;5065257;28;20287;-68
2023/02/03 11:02:24;;;;;;;;;;;10.30;99.90;;;;;;5057283;28;19916;-67
2023/02/03 11:05:07;;;;;;;;;;;10.30;99.90;;;;;;4958939;28;19912;-68
2023/02/03 11:07:33;;;;;;;;;;;10.30;99.90;;;;;;4959560;28;19919;-69
2023/02/03 11:09:58;;;;;;;;;;;10.30;99.90;;;;;;4957205;28;20378;-68
2023/02/03 11:12:24;;;;;;;;;;;10.30;99.90;;;;;;4963083;28;19912;-68
2023/02/03 11:14:50;;;;;;;;;;;10.30;99.90;;;;;;4967151;28;19943;-69
2023/02/03 11:17:17;;;;;;;;;;;10.30;99.90;;;;;;4948500;28;19919;-68
2023/02/03 11:19:45;;;;;;;;;;;10.40;99.90;;;;;;4965466;28;19928;-69
2023/02/03 11:22:11;;;;;;;;;;;10.30;99.90;;;;;;4967131;28;21108;-67
2023/02/03 11:24:38;;;;;;;;;;;10.30;99.90;;;;;;4968241;28;20657;-68
2023/02/03 11:27:15;;;;;;;;;;;10.30;99.90;;;;;;4966246;28;19916;-69
2023/02/03 11:29:43;;;;;;;;;;;10.30;99.90;;;;;;4966362;28;20632;-69
2023/02/03 11:32:17;;;;;;;;;;;10.30;99.90;;;;;;4965582;28;20192;-69
2023/02/03 11:34:50;;;;;;;;;;;10.30;99.90;;;;;;4963578;28;19927;-68
2023/02/03 11:37:26;;;;;;;;;;;10.30;99.90;;;;;;4964619;28;20407;-68
2023/02/03 11:39:55;;;;;;;;;;;10.30;99.90;;;;;;4963129;28;20059;-69
2023/02/03 11:42:21;;;;;;;;;;;10.20;99.90;;;;;;4964789;28;20523;-69
2023/02/03 11:44:47;;;;;;;;;;;10.20;99.90;;;;;;4964594;28;19912;-68
2023/02/03 11:47:15;;;;;;;;;;;10.20;99.90;;;;;;4959520;28;19923;-69
2023/02/03 11:49:59;;;;;;;;;;;10.20;99.90;;;;;;4959377;28;19949;-69
2023/02/03 11:52:25;;;;;;;;;;;10.10;99.90;;;;;;4959138;28;19912;-68
2023/02/03 11:55:09;;;;;;;;;;;10.10;99.90;;;;;;4958274;28;19920;-69
2023/02/03 11:57:43;;;;;;;;;;;10.10;99.90;;;;;;4958296;28;19959;-68
2023/02/03 12:00:15;;;;;;;;;;;10.10;99.90;;;;;;4956890;28;20380;-68
2023/02/03 12:02:44;;;;;;;;;;;10.10;99.90;;;;;;5035289;28;19912;-70
2023/02/03 12:05:32;;;;;;;;;;;10.10;99.90;;;;;;5065308;28;19959;-69
2023/02/03 12:08:00;;;;;;;;;;;10.10;99.90;;;;;;5069342;28;19908;-81
2023/02/03 12:10:28;;;;;;;;;;;10.10;99.90;;;;;;5065794;28;19916;-72
2023/02/03 12:13:06;;;;;;;;;;;10.10;99.90;;;;;;5064351;28;19920;-69
2023/02/03 12:15:50;;;;;;;;;;;10.10;99.90;;;;;;5065342;28;19909;-77
2023/02/03 12:18:16;;;;;;;;;;;10.00;99.90;;;;;;5061234;28;19912;-69
2023/02/03 12:20:56;;;;;;;;;;;10.00;99.90;;;;;;5066510;28;19915;-66
2023/02/03 12:23:22;;;;;;;;;;;10.00;99.90;;;;;;5069478;28;20012;-69
2023/02/03 12:26:03;;;;;;;;;;;10.00;99.90;;;;;;5071533;28;19991;-82
2023/02/03 12:28:46;;;;;;;;;;;9.90;99.90;;;;;;5068927;28;19931;-68
2023/02/03 12:31:16;;;;;;;;;;;9.90;99.90;;;;;;5058844;28;19908;-68
2023/02/03 12:33:48;;;;;;;;;;;9.90;99.90;;;;;;4970733;28;21155;-71
2023/02/03 12:36:17;;;;;;;;;;;9.80;99.90;;;;;;4970480;28;20050;-67
2023/02/03 12:38:45;;;;;;;;;;;9.80;99.90;;;;;;4967067;28;19952;-70
2023/02/03 12:41:20;;;;;;;;;;;9.90;99.90;;;;;;4959247;28;19913;-66
2023/02/03 12:43:51;;;;;;;;;;;9.90;99.90;;;;;;4961442;28;21344;-68
2023/02/03 12:46:20;;;;;;;;;;;10.00;99.90;;;;;;4958886;28;20512;-68
2023/02/03 12:48:59;;;;;;;;;;;9.90;99.90;;;;;;4942353;28;19912;-68
2023/02/03 12:51:28;;;;;;;;;;;9.90;99.90;;;;;;4961073;28;19916;-68
2023/02/03 12:53:56;;;;;;;;;;;10.00;99.90;;;;;;4963027;28;20049;-68
2023/02/03 12:56:25;;;;;;;;;;;9.90;99.90;;;;;;4960595;28;20731;-68
2023/02/03 12:59:01;;;;;;;;;;;9.90;99.90;;;;;;4941033;28;19912;-70
2023/02/03 13:01:39;;;;;;;;;;;9.90;99.90;;;;;;4959672;28;19939;-79
2023/02/03 13:04:07;;;;;;;;;;;9.80;99.90;;;;;;4961073;28;19912;-68
2023/02/03 13:06:56;;;;;;;;;;;9.80;99.90;;;;;;4960846;28;19912;-68
2023/02/03 13:09:25;;;;;;;;;;;9.80;99.90;;;;;;4942480;28;19955;-68
2023/02/03 13:11:53;;;;;;;;;;;9.80;99.90;;;;;;4960717;28;19952;-70
2023/02/03 13:14:26;;;;;;;;;;;9.80;99.90;;;;;;4957710;28;19924;-69
2023/02/03 13:16:56;;;;;;;;;;;9.80;99.90;;;;;;4959042;28;19913;-68
2023/02/03 13:19:28;;;;;;;;;;;9.80;99.90;;;;;;4959455;28;19951;-67
2023/02/03 13:21:53;;;;;;;;;;;9.80;99.90;;;;;;4941997;28;20003;-69
2023/02/03 13:24:22;;;;;;;;;;;9.70;99.90;;;;;;4958758;28;19912;-69
2023/02/03 13:26:59;;;;;;;;;;;9.80;99.90;;;;;;4987502;28;19908;-69
2023/02/03 13:29:25;;;;;;;;;;;9.70;99.90;;;;;;4978310;28;20044;-69
2023/02/03 13:32:06;;;;;;;;;;;9.70;99.90;;;;;;4965873;28;19920;-72
2023/02/03 13:34:34;;;;;;;;;;;9.70;99.90;;;;;;4936446;28;19924;-69
2023/02/03 13:37:19;;;;;;;;;;;9.70;99.90;;;;;;4960501;28;22158;-67
2023/02/03 13:40:10;;;;;;;;;;;9.70;99.90;;;;;;4957333;28;19913;-67
2023/02/03 13:42:41;;;;;;;;;;;9.70;99.90;;;;;;4957566;28;19942;-67
2023/02/03 13:45:25;;;;;;;;;;;9.60;99.90;;;;;;4962072;28;19912;-67
2023/02/03 13:47:53;;;;;;;;;;;9.60;99.90;;;;;;4962816;28;20970;-67
2023/02/03 13:50:21;;;;;;;;;;;9.50;99.90;;;;;;4959222;28;19912;-66
2023/02/03 13:52:53;;;;;;;;;;;9.50;99.90;;;;;;4959205;28;19920;-67
2023/02/03 13:55:38;;;;;;;;;;;9.50;99.90;;;;;;4958744;28;21570;-68
2023/02/03 13:58:06;;;;;;;;;;;9.50;99.90;;;;;;4958990;28;20561;-67
2023/02/03 14:00:44;;;;;;;;;;;9.50;99.90;;;;;;4958068;28;20037;-66
2023/02/03 14:03:24;;;;;;;;;;;9.50;99.90;;;;;;4960116;28;19912;-68
2023/02/03 14:05:53;;;;;;;;;;;9.50;99.90;;;;;;4958822;28;20003;-66
2023/02/03 14:08:24;;;;;;;;;;;9.50;99.90;;;;;;4957844;28;19966;-66
2023/02/03 14:11:09;;;;;;;;;;;9.40;99.90;;;;;;4963369;28;19917;-68
2023/02/03 14:13:34;;;;;;;;;;;9.50;99.90;;;;;;4959734;28;19924;-65
2023/02/03 14:16:19;;;;;;;;;;;9.50;99.90;;;;;;4958695;28;19912;-66
2023/02/03 14:18:44;;;;;;;;;;;9.50;99.90;;;;;;4959492;28;19919;-72
2023/02/03 14:21:17;;;;;;;;;;;9.40;99.90;;;;;;4937863;28;19967;-67
2023/02/03 14:23:45;;;;;;;;;;;9.40;99.90;;;;;;4962016;28;19912;-68
2023/02/03 14:26:16;;;;;;;;;;;9.40;99.90;;;;;;4958794;28;19912;-66
2023/02/03 14:28:42;;;;;;;;;;;9.40;99.90;;;;;;4959757;28;20948;-65
2023/02/03 14:31:17;;;;;;;;;;;9.30;99.90;;;;;;4961942;28;19913;-68
2023/02/03 14:34:02;;;;;;;;;;;9.30;99.90;;;;;;4963144;28;20619;-65
2023/02/03 14:36:29;;;;;;;;;;;9.30;99.90;;;;;;4964370;28;20925;-66